createdAt,value
2018-03-22T00:01:46.251Z,16.17
2018-03-22T00:04:20.048Z,15.50
2018-03-22T00:06:53.619Z,15.30
2018-03-22T00:09:27.187Z,15.40
2018-03-22T00:12:00.749Z,15.20
2018-03-22T00:14:34.431Z,16.43
2018-03-22T00:17:08.055Z,16.27
2018-03-22T00:19:41.815Z,15.50
2018-03-22T00:22:27.328Z,16.53
2018-03-22T00:25:01.077Z,15.77
2018-03-22T00:27:34.792Z,16.47
2018-03-22T00:30:08.520Z,16.90
2018-03-22T00:32:42.331Z,15.67
2018-03-22T00:35:16.034Z,16.60
2018-03-22T00:37:49.723Z,17.07
2018-03-22T00:40:23.428Z,16.57
2018-03-22T00:42:57.131Z,16.87
2018-03-22T00:45:30.831Z,16.87
2018-03-22T00:48:04.567Z,16.60
2018-03-22T00:50:38.364Z,16.63
2018-03-22T00:53:12.169Z,15.73
2018-03-22T00:55:45.848Z,15.50
2018-03-22T00:58:19.549Z,16.60
2018-03-22T01:00:53.234Z,16.60
2018-03-22T01:03:26.869Z,16.30
2018-03-22T01:06:00.525Z,16.47
2018-03-22T01:08:34.254Z,15.87
2018-03-22T01:11:07.887Z,17.00
2018-03-22T01:13:41.495Z,16.63
2018-03-22T01:16:15.190Z,16.47
2018-03-22T01:18:48.967Z,15.57
2018-03-22T01:21:22.695Z,16.73
2018-03-22T01:23:56.422Z,15.70
2018-03-22T01:26:29.998Z,15.87
2018-03-22T01:29:03.602Z,16.77
2018-03-22T01:31:37.263Z,17.33
2018-03-22T01:34:11.011Z,18.03
2018-03-22T01:36:44.732Z,16.73
2018-03-22T01:39:18.463Z,17.67
2018-03-22T01:41:52.254Z,16.50
2018-03-22T01:44:26.060Z,16.43
2018-03-22T01:46:59.748Z,16.90
2018-03-22T01:49:33.429Z,18.87
2018-03-22T01:52:07.195Z,17.80
2018-03-22T01:54:40.834Z,17.87
2018-03-22T01:57:14.479Z,17.80
2018-03-22T01:59:48.288Z,17.00
2018-03-22T02:02:21.860Z,16.17
2018-03-22T02:04:55.953Z,18.50
2018-03-22T02:07:29.663Z,17.50
2018-03-22T02:10:03.407Z,17.57
2018-03-22T02:12:37.158Z,18.50
2018-03-22T02:15:10.857Z,16.70
2018-03-22T02:17:44.574Z,17.00
2018-03-22T02:20:18.234Z,18.23
2018-03-22T02:22:51.813Z,18.27
2018-03-22T02:25:25.699Z,17.77
2018-03-22T02:27:59.382Z,17.50
2018-03-22T02:30:33.115Z,18.93
2018-03-22T02:33:06.781Z,18.27
2018-03-22T02:35:40.466Z,18.50
2018-03-22T02:38:14.266Z,17.80
2018-03-22T02:40:47.843Z,17.37
2018-03-22T02:43:21.440Z,17.37
2018-03-22T02:45:55.134Z,18.50
2018-03-22T02:48:28.788Z,18.00
2018-03-22T02:51:02.679Z,18.70
2018-03-22T02:53:36.446Z,18.93
2018-03-22T02:56:10.148Z,19.63
2018-03-22T02:58:43.874Z,19.93
2018-03-22T03:01:17.483Z,18.23
2018-03-22T03:03:51.132Z,19.87
2018-03-22T03:06:24.936Z,20.30
2018-03-22T03:08:58.691Z,20.27
2018-03-22T03:11:32.301Z,19.80
2018-03-22T03:14:06.091Z,20.87
2018-03-22T03:16:52.716Z,19.90
2018-03-22T03:19:26.269Z,20.10
2018-03-22T03:21:59.982Z,19.83
2018-03-22T03:24:33.643Z,19.23
2018-03-22T03:27:07.238Z,21.57
2018-03-22T03:29:40.779Z,20.37
2018-03-22T03:32:14.476Z,20.80
2018-03-22T03:34:48.301Z,21.80
2018-03-22T03:37:22.123Z,20.03
2018-03-22T03:39:55.778Z,20.13
2018-03-22T03:42:29.362Z,20.07
2018-03-22T03:45:03.065Z,20.23
2018-03-22T03:47:36.590Z,22.67
2018-03-22T03:50:10.299Z,21.03
2018-03-22T03:52:44.018Z,20.67
2018-03-22T03:55:17.768Z,19.60
2018-03-22T03:57:51.387Z,20.30
2018-03-22T04:00:25.108Z,21.77
2018-03-22T04:02:58.692Z,20.83
2018-03-22T04:05:32.259Z,21.03
2018-03-22T04:08:06.042Z,19.90
2018-03-22T04:10:39.683Z,21.10
2018-03-22T04:13:13.446Z,22.17
2018-03-22T04:15:47.173Z,22.23
2018-03-22T04:18:20.970Z,21.03
2018-03-22T04:20:54.522Z,20.77
2018-03-22T04:23:28.186Z,23.07
2018-03-22T04:26:01.952Z,22.60
2018-03-22T04:28:35.728Z,22.87
2018-03-22T04:31:09.458Z,21.93
2018-03-22T04:33:43.022Z,22.70
2018-03-22T04:36:16.571Z,23.63
2018-03-22T04:38:50.342Z,24.67
2018-03-22T04:41:24.144Z,24.50
2018-03-22T04:43:57.704Z,22.97
2018-03-22T04:46:31.432Z,24.10
2018-03-22T04:49:05.067Z,24.67
2018-03-22T04:51:38.750Z,24.47
2018-03-22T04:54:12.626Z,24.37
2018-03-22T04:56:46.325Z,24.60
2018-03-22T04:59:20.080Z,24.20
2018-03-22T05:01:53.838Z,25.27
2018-03-22T05:04:27.538Z,24.73
2018-03-22T05:07:01.087Z,27.03
2018-03-22T05:09:34.873Z,27.10
2018-03-22T05:12:08.590Z,22.70
2018-03-22T05:14:42.158Z,25.23
2018-03-22T05:17:15.769Z,24.60
2018-03-22T05:19:49.350Z,24.57
2018-03-22T05:22:22.966Z,25.03
2018-03-22T05:24:56.644Z,23.90
2018-03-22T05:27:30.251Z,24.10
2018-03-22T05:30:03.919Z,27.03
2018-03-22T05:32:37.544Z,26.03
2018-03-22T05:35:11.260Z,26.17
2018-03-22T05:37:45.094Z,26.10
2018-03-22T05:40:18.709Z,26.33
2018-03-22T05:42:52.358Z,27.07
2018-03-22T05:45:26.050Z,24.20
2018-03-22T05:47:59.653Z,24.83
2018-03-22T05:50:34.284Z,28.80
2018-03-22T05:53:08.101Z,28.83
2018-03-22T05:55:41.663Z,30.07
2018-03-22T05:58:15.314Z,27.40
2018-03-22T06:00:49.035Z,26.93
2018-03-22T06:03:22.748Z,27.80
2018-03-22T06:05:56.650Z,26.60
2018-03-22T06:08:30.474Z,27.73
2018-03-22T06:11:04.111Z,30.57
2018-03-22T06:13:37.826Z,29.03
2018-03-22T06:16:11.659Z,26.73
2018-03-22T06:18:45.338Z,28.30
2018-03-22T06:21:19.048Z,27.83
2018-03-22T06:23:52.683Z,27.80
2018-03-22T06:26:26.399Z,27.47
2018-03-22T06:29:00.095Z,27.20
2018-03-22T06:31:33.947Z,29.10
2018-03-22T06:34:07.615Z,27.83
2018-03-22T06:36:41.298Z,29.07
2018-03-22T06:39:14.978Z,28.77
2018-03-22T06:41:48.579Z,29.47
2018-03-22T06:44:22.273Z,26.63
2018-03-22T06:46:55.941Z,27.80
2018-03-22T06:49:29.616Z,28.40
2018-03-22T06:52:03.118Z,27.60
2018-03-22T06:54:36.866Z,29.92
2018-03-22T06:57:10.791Z,31.77
2018-03-22T06:59:44.552Z,30.00
2018-03-22T07:02:18.331Z,30.03
2018-03-22T07:04:51.983Z,30.73
2018-03-22T07:07:25.547Z,29.37
2018-03-22T07:09:59.217Z,27.30
2018-03-22T07:12:32.955Z,29.67
2018-03-22T07:15:06.787Z,30.10
2018-03-22T07:17:40.498Z,30.43
2018-03-22T07:20:14.144Z,31.57
2018-03-22T07:22:47.886Z,29.80
2018-03-22T07:25:21.622Z,31.77
2018-03-22T07:27:55.452Z,30.50
2018-03-22T07:30:29.039Z,30.93
2018-03-22T07:33:02.876Z,28.83
2018-03-22T07:35:36.488Z,31.00
2018-03-22T07:38:10.202Z,30.30
2018-03-22T07:40:43.926Z,30.07
2018-03-22T07:43:23.312Z,32.97
2018-03-22T07:45:56.962Z,29.37
2018-03-22T07:48:30.566Z,31.53
2018-03-22T07:51:04.193Z,30.60
2018-03-22T07:53:37.751Z,30.30
2018-03-22T07:56:11.415Z,29.67
2018-03-22T07:58:45.119Z,31.23
2018-03-22T08:01:18.843Z,26.63
2018-03-22T08:03:52.590Z,25.80
2018-03-22T08:06:26.231Z,25.30
2018-03-22T08:08:59.838Z,23.50
2018-03-22T08:11:33.453Z,23.40
2018-03-22T08:14:07.074Z,22.17
2018-03-22T08:16:40.786Z,23.13
2018-03-22T08:19:14.450Z,22.87
2018-03-22T08:21:48.061Z,22.43
2018-03-22T08:24:21.590Z,20.53
2018-03-22T08:26:55.165Z,21.43
2018-03-22T08:29:28.823Z,24.43
2018-03-22T08:32:02.494Z,23.23
2018-03-22T08:34:36.136Z,20.90
2018-03-22T08:37:09.897Z,19.97
2018-03-22T08:39:43.573Z,19.93
2018-03-22T08:42:17.210Z,19.40
2018-03-22T08:44:51.009Z,19.20
2018-03-22T08:47:24.667Z,19.90
2018-03-22T08:49:58.297Z,19.00
2018-03-22T08:52:32.121Z,22.20
2018-03-22T08:55:05.888Z,22.80
2018-03-22T08:57:39.530Z,23.33
2018-03-22T09:00:13.236Z,24.70
2018-03-22T09:02:47.038Z,23.70
2018-03-22T09:05:20.561Z,21.90
2018-03-22T09:07:54.337Z,22.40
2018-03-22T09:10:27.956Z,22.80
2018-03-22T09:13:01.634Z,21.93
2018-03-22T09:15:35.374Z,23.63
2018-03-22T09:18:09.114Z,23.97
2018-03-22T09:20:42.645Z,24.57
2018-03-22T09:23:16.365Z,27.77
2018-03-22T09:25:49.948Z,30.40
2018-03-22T09:28:23.526Z,25.47
2018-03-22T09:30:57.010Z,26.20
2018-03-22T09:33:30.835Z,23.27
2018-03-22T09:36:04.465Z,24.03
2018-03-22T09:38:38.024Z,24.40
2018-03-22T09:41:11.677Z,25.37
2018-03-22T09:43:45.370Z,26.80
2018-03-22T09:46:18.946Z,27.10
2018-03-22T09:48:52.735Z,28.00
2018-03-22T09:51:26.506Z,29.57
2018-03-22T09:54:00.081Z,31.60
2018-03-22T09:56:33.694Z,30.07
2018-03-22T09:59:07.641Z,28.60
2018-03-22T10:01:41.294Z,27.40
2018-03-22T10:04:14.917Z,27.47
2018-03-22T10:09:47.553Z,26.70
2018-03-22T10:12:21.214Z,28.17
2018-03-22T10:14:54.786Z,28.20
2018-03-22T10:17:28.369Z,29.33
2018-03-22T10:20:02.041Z,29.77
2018-03-22T10:22:35.613Z,27.03
2018-03-22T10:25:09.221Z,26.00
2018-03-22T10:27:42.945Z,29.67
2018-03-22T10:30:16.610Z,28.53
2018-03-22T10:32:50.186Z,28.87
2018-03-22T10:35:23.837Z,28.53
2018-03-22T10:37:57.442Z,28.90
2018-03-22T10:40:31.000Z,30.87
2018-03-22T10:43:04.616Z,27.07
2018-03-22T10:45:38.286Z,26.93
2018-03-22T10:48:11.849Z,29.53
2018-03-22T10:50:45.542Z,29.50
2018-03-22T10:53:19.079Z,30.37
2018-03-22T10:55:52.537Z,28.87
2018-03-22T10:58:26.273Z,30.03
2018-03-22T11:01:05.598Z,30.03
2018-03-22T11:03:45.116Z,33.03
2018-03-22T11:06:18.754Z,34.37
2018-03-22T11:08:52.325Z,39.90
2018-03-22T11:11:26.168Z,43.57
2018-03-22T11:13:59.834Z,53.07
2018-03-22T11:16:33.525Z,51.27
2018-03-22T11:19:07.240Z,53.73
2018-03-22T11:21:40.901Z,53.07
2018-03-22T11:24:14.610Z,66.80
2018-03-22T11:26:48.238Z,74.03
2018-03-22T11:29:21.870Z,70.77
2018-03-22T11:31:55.469Z,68.20
2018-03-22T11:34:29.014Z,157.57
2018-03-22T11:37:02.702Z,72.87
2018-03-22T11:39:36.378Z,73.13
2018-03-22T11:42:10.219Z,71.40
2018-03-22T11:44:43.774Z,105.73
2018-03-22T11:47:17.386Z,61.93
2018-03-22T11:49:51.005Z,68.47
2018-03-22T11:52:24.550Z,57.67
2018-03-22T11:54:58.077Z,61.17
2018-03-22T11:57:31.849Z,55.57
2018-03-22T12:00:05.585Z,58.03
2018-03-22T12:02:39.138Z,75.83
2018-03-22T12:05:12.666Z,56.33
2018-03-22T12:07:46.322Z,66.57
2018-03-22T12:10:19.965Z,57.90
2018-03-22T12:12:53.710Z,69.40
2018-03-22T12:15:27.389Z,50.60
2018-03-22T12:18:00.958Z,61.40
2018-03-22T12:20:34.631Z,52.40
2018-03-22T12:23:08.359Z,62.80
2018-03-22T12:25:41.993Z,52.30
2018-03-22T12:28:15.673Z,53.07
2018-03-22T12:30:49.277Z,50.40
2018-03-22T12:33:22.931Z,48.83
2018-03-22T12:35:56.510Z,52.33
2018-03-22T12:38:30.142Z,57.30
2018-03-22T12:41:03.697Z,52.83
2018-03-22T12:43:37.342Z,58.40
2018-03-22T12:46:10.926Z,43.20
2018-03-22T12:48:44.478Z,41.17
2018-03-22T12:51:18.170Z,45.30
2018-03-22T12:53:51.862Z,36.23
2018-03-22T12:56:25.409Z,56.60
2018-03-22T12:58:59.026Z,56.60
2018-03-22T13:01:32.622Z,55.43
2018-03-22T13:04:06.382Z,55.77
2018-03-22T13:06:39.916Z,36.33
2018-03-22T13:09:13.533Z,30.33
2018-03-22T13:11:47.183Z,42.73
2018-03-22T13:14:20.798Z,53.57
2018-03-22T13:16:54.454Z,52.30
2018-03-22T13:19:28.065Z,28.80
2018-03-22T13:22:01.685Z,38.03
2018-03-22T13:24:35.259Z,23.20
2018-03-22T13:27:08.977Z,20.87
2018-03-22T13:29:42.817Z,24.00
2018-03-22T13:32:16.518Z,18.53
2018-03-22T13:34:50.144Z,19.10
2018-03-22T13:37:23.875Z,20.63
2018-03-22T13:39:57.627Z,19.67
2018-03-22T13:42:31.157Z,19.57
2018-03-22T13:45:04.758Z,18.53
2018-03-22T13:47:38.312Z,18.70
2018-03-22T13:50:11.866Z,19.30
2018-03-22T13:52:45.689Z,20.77
2018-03-22T13:55:19.193Z,21.27
2018-03-22T13:57:52.826Z,19.40
2018-03-22T14:00:26.360Z,19.50
2018-03-22T14:03:00.041Z,19.40
2018-03-22T14:05:33.602Z,19.33
2018-03-22T14:08:07.345Z,20.03
2018-03-22T14:10:41.065Z,20.20
2018-03-22T14:13:14.741Z,20.27
2018-03-22T14:15:48.386Z,21.83
2018-03-22T14:18:22.060Z,19.80
2018-03-22T14:20:55.746Z,19.77
2018-03-22T14:23:29.325Z,18.83
2018-03-22T14:26:02.956Z,18.87
2018-03-22T14:28:36.661Z,18.33
2018-03-22T14:31:10.261Z,19.30
2018-03-22T14:33:43.802Z,20.20
2018-03-22T14:36:17.577Z,18.57
2018-03-22T14:38:51.237Z,22.70
2018-03-22T14:41:24.866Z,19.20
2018-03-22T14:43:58.405Z,19.93
2018-03-22T14:46:32.217Z,18.70
2018-03-22T14:49:05.869Z,18.83
2018-03-22T14:51:39.482Z,18.33
2018-03-22T14:54:13.029Z,33.47
2018-03-22T14:56:46.689Z,28.57
2018-03-22T14:59:20.393Z,25.50
2018-03-22T15:01:54.039Z,22.43
2018-03-22T15:04:27.598Z,21.53
2018-03-22T15:07:01.206Z,21.67
2018-03-22T15:09:34.725Z,20.07
2018-03-22T15:12:08.514Z,20.57
2018-03-22T15:14:42.038Z,20.70
2018-03-22T15:17:15.666Z,19.67
2018-03-22T15:19:49.193Z,21.10
2018-03-22T15:22:22.804Z,19.93
2018-03-22T15:24:56.380Z,16.43
2018-03-22T15:27:30.044Z,17.57
2018-03-22T15:30:03.792Z,19.20
2018-03-22T15:32:37.422Z,20.50
2018-03-22T15:35:11.100Z,19.90
2018-03-22T15:37:44.842Z,21.47
2018-03-22T15:40:18.440Z,22.03
2018-03-22T15:42:52.030Z,23.47
2018-03-22T15:45:25.630Z,23.10
2018-03-22T15:47:59.209Z,24.10
2018-03-22T15:50:32.990Z,25.03
2018-03-22T15:53:06.550Z,25.07
2018-03-22T15:55:40.240Z,25.20
2018-03-22T15:58:13.997Z,23.13
2018-03-22T16:00:47.702Z,23.70
2018-03-22T16:03:21.290Z,24.50
2018-03-22T16:05:54.857Z,28.73
2018-03-22T16:08:28.597Z,24.97
2018-03-22T16:11:02.374Z,26.07
2018-03-22T16:13:36.016Z,27.93
2018-03-22T16:16:09.559Z,25.60
2018-03-22T16:18:43.154Z,27.07
2018-03-22T16:21:16.673Z,24.87
2018-03-22T16:23:50.395Z,28.60
2018-03-22T16:26:24.072Z,24.57
2018-03-22T16:28:57.663Z,24.77
2018-03-22T16:31:31.260Z,26.07
2018-03-22T16:34:04.897Z,28.47
2018-03-22T16:36:38.490Z,26.63
2018-03-22T16:39:12.083Z,24.07
2018-03-22T16:41:45.660Z,25.23
2018-03-22T16:44:19.255Z,24.23
2018-03-22T16:46:52.766Z,24.77
2018-03-22T16:49:26.297Z,22.73
2018-03-22T16:52:00.061Z,24.93
2018-03-22T16:54:33.701Z,26.13
2018-03-22T16:57:07.349Z,25.27
2018-03-22T16:59:40.917Z,25.40
2018-03-22T17:02:14.476Z,24.37
2018-03-22T17:04:48.074Z,28.33
2018-03-22T17:07:21.570Z,24.30
2018-03-22T17:09:55.230Z,26.40
2018-03-22T17:12:28.908Z,27.33
2018-03-22T17:15:02.418Z,27.63
2018-03-22T17:17:36.017Z,26.90
2018-03-22T17:20:09.617Z,27.43
2018-03-22T17:22:43.268Z,25.73
2018-03-22T17:25:16.884Z,25.83
2018-03-22T17:27:50.559Z,23.07
2018-03-22T17:30:24.291Z,22.13
2018-03-22T17:32:57.841Z,24.40
2018-03-22T17:35:31.453Z,27.23
2018-03-22T17:38:05.010Z,25.03
2018-03-22T17:40:38.649Z,25.13
2018-03-22T17:43:12.247Z,25.90
2018-03-22T17:45:45.955Z,26.53
2018-03-22T17:48:19.665Z,29.90
2018-03-22T17:50:53.316Z,23.83
2018-03-22T17:53:27.114Z,27.33
2018-03-22T17:56:00.780Z,41.47
2018-03-22T17:58:34.378Z,28.17
2018-03-22T18:01:07.902Z,27.40
2018-03-22T18:03:41.609Z,27.27
2018-03-22T18:06:15.214Z,27.77
2018-03-22T18:08:48.922Z,35.17
2018-03-22T18:11:22.782Z,33.97
2018-03-22T18:13:56.351Z,57.60
2018-03-22T18:16:30.058Z,28.07
2018-03-22T18:19:03.846Z,45.37
2018-03-22T18:21:37.695Z,27.20
2018-03-22T18:24:11.396Z,27.57
2018-03-22T18:26:45.118Z,27.53
2018-03-22T18:29:18.728Z,36.00
2018-03-22T18:31:52.479Z,51.07
2018-03-22T18:34:26.354Z,37.53
2018-03-22T18:37:09.532Z,34.13
2018-03-22T18:39:43.123Z,42.70
2018-03-22T18:42:16.698Z,37.07
2018-03-22T18:44:50.587Z,28.83
2018-03-22T18:47:24.363Z,24.23
2018-03-22T18:49:57.997Z,32.97
2018-03-22T18:52:31.898Z,26.17
2018-03-22T18:55:05.571Z,24.63
2018-03-22T18:57:39.236Z,26.23
2018-03-22T19:00:12.963Z,38.67
2018-03-22T19:02:46.700Z,25.43
2018-03-22T19:05:20.450Z,25.77
2018-03-22T19:07:54.263Z,22.87
2018-03-22T19:10:28.147Z,40.70
2018-03-22T19:13:01.947Z,34.57
2018-03-22T19:15:35.475Z,26.50
2018-03-22T19:18:09.165Z,64.03
2018-03-22T19:20:42.778Z,27.17
2018-03-22T19:23:16.439Z,29.40
2018-03-22T19:25:50.026Z,33.43
2018-03-22T19:28:23.814Z,26.33
2018-03-22T19:30:57.433Z,39.47
2018-03-22T19:33:31.066Z,27.30
2018-03-22T19:36:04.945Z,40.33
2018-03-22T19:38:38.496Z,28.60
2018-03-22T19:41:12.026Z,28.17
2018-03-22T19:43:45.610Z,39.23
2018-03-22T19:46:19.349Z,36.53
2018-03-22T19:48:52.994Z,31.40
2018-03-22T19:51:26.534Z,31.30
2018-03-22T19:54:00.342Z,31.93
2018-03-22T19:56:33.926Z,28.53
2018-03-22T19:59:07.492Z,26.57
2018-03-22T20:01:41.103Z,30.63
2018-03-22T20:04:14.815Z,24.97
2018-03-22T20:06:48.387Z,24.40
2018-03-22T20:09:21.956Z,23.13
2018-03-22T20:11:55.630Z,23.73
2018-03-22T20:14:29.242Z,25.40
2018-03-22T20:17:02.922Z,23.20
2018-03-22T20:19:36.661Z,24.97
2018-03-22T20:22:10.185Z,26.57
2018-03-22T20:24:43.843Z,25.57
2018-03-22T20:27:17.348Z,25.57
2018-03-22T20:29:50.926Z,27.07
2018-03-22T20:32:24.676Z,28.57
2018-03-22T20:34:59.143Z,26.00
2018-03-22T20:37:32.871Z,25.17
2018-03-22T20:40:06.402Z,25.47
2018-03-22T20:42:40.151Z,26.50
2018-03-22T20:45:13.896Z,25.90
2018-03-22T20:47:47.529Z,28.80
2018-03-22T20:50:21.147Z,35.37
2018-03-22T20:52:54.738Z,30.17
2018-03-22T20:55:28.285Z,30.43
2018-03-22T20:58:01.950Z,36.13
2018-03-22T21:00:35.511Z,34.50
2018-03-22T21:03:09.228Z,29.57
2018-03-22T21:05:42.791Z,37.47
2018-03-22T21:08:16.399Z,77.00
2018-03-22T21:10:49.997Z,32.97
2018-03-22T21:13:23.692Z,33.07
2018-03-22T21:15:57.319Z,42.20
2018-03-22T21:18:31.011Z,30.13
2018-03-22T21:21:04.810Z,30.37
2018-03-22T21:23:38.571Z,26.53
2018-03-22T21:26:12.247Z,29.77
2018-03-22T21:28:45.841Z,41.50
2018-03-22T21:31:19.438Z,26.80
2018-03-22T21:33:53.067Z,24.40
2018-03-22T21:36:26.726Z,24.87
2018-03-22T21:39:00.390Z,23.50
2018-03-22T21:41:34.026Z,24.13
2018-03-22T21:44:16.498Z,21.90
2018-03-22T21:46:50.218Z,21.73
2018-03-22T21:49:23.915Z,19.27
2018-03-22T21:52:09.447Z,19.83
2018-03-22T21:54:43.160Z,17.70
2018-03-22T21:57:16.702Z,17.33
2018-03-22T21:59:50.386Z,18.03
2018-03-22T22:02:23.998Z,16.70
2018-03-22T22:04:57.656Z,17.10
2018-03-22T22:07:31.260Z,16.17
2018-03-22T22:10:04.812Z,15.97
2018-03-22T22:12:38.606Z,15.93
2018-03-22T22:15:12.271Z,15.67
2018-03-22T22:17:45.807Z,16.67
2018-03-22T22:20:19.467Z,15.93
2018-03-22T22:22:53.066Z,15.60
2018-03-22T22:25:26.692Z,15.17
2018-03-22T22:28:00.286Z,16.07
2018-03-22T22:30:33.891Z,13.00
2018-03-22T22:33:07.491Z,13.80
2018-03-22T22:35:41.027Z,14.93
2018-03-22T22:38:14.691Z,14.80
2018-03-22T22:40:48.263Z,13.57
2018-03-22T22:43:21.898Z,14.43
2018-03-22T22:45:55.471Z,13.67
2018-03-22T22:48:29.139Z,14.00
2018-03-22T22:51:02.807Z,13.93
2018-03-22T22:53:36.398Z,14.80
2018-03-22T22:56:10.118Z,13.17
2018-03-22T22:58:43.697Z,14.57
2018-03-22T23:01:17.306Z,14.43
2018-03-22T23:03:50.850Z,14.37
2018-03-22T23:06:24.619Z,14.73
2018-03-22T23:08:58.411Z,13.83
2018-03-22T23:11:32.094Z,14.73
2018-03-22T23:14:05.843Z,14.50
2018-03-22T23:16:39.542Z,14.90
2018-03-22T23:19:13.170Z,14.37
2018-03-22T23:21:46.681Z,15.47
2018-03-22T23:24:20.357Z,14.37
2018-03-22T23:26:53.958Z,16.53
2018-03-22T23:29:27.629Z,15.50
2018-03-22T23:32:01.125Z,16.40
2018-03-22T23:34:34.781Z,15.20
2018-03-22T23:37:08.389Z,15.80
2018-03-22T23:39:42.169Z,15.90
2018-03-22T23:42:15.665Z,16.07
2018-03-22T23:44:49.317Z,15.90
2018-03-22T23:47:22.901Z,16.07
2018-03-22T23:49:56.469Z,15.30
2018-03-22T23:52:30.148Z,17.00
2018-03-22T23:55:03.665Z,16.37
2018-03-22T23:57:37.277Z,17.93
